createdAt,value
2017-02-19T00:00:05.897Z,0
2017-02-19T00:01:15.888Z,0
2017-02-19T00:02:26.715Z,0
2017-02-19T00:03:37.079Z,0
2017-02-19T00:04:47.467Z,0
2017-02-19T00:05:57.855Z,0
2017-02-19T00:07:08.661Z,0
2017-02-19T00:08:18.661Z,0
2017-02-19T00:09:28.675Z,0
2017-02-19T00:10:39.107Z,0
2017-02-19T00:11:49.500Z,0
2017-02-19T00:13:00.283Z,0
2017-02-19T00:14:10.673Z,0
2017-02-19T00:15:21.474Z,0
2017-02-19T00:16:31.863Z,0
2017-02-19T00:17:42.683Z,0
2017-02-19T00:18:53.481Z,0
2017-02-19T00:20:03.484Z,0
2017-02-19T00:21:14.343Z,0
2017-02-19T00:22:24.747Z,0
2017-02-19T00:23:35.175Z,0
2017-02-19T00:24:45.950Z,0
2017-02-19T00:25:56.342Z,0
2017-02-19T00:27:06.322Z,0
2017-02-19T00:28:17.123Z,0
2017-02-19T00:29:27.919Z,0
2017-02-19T00:30:38.365Z,0
2017-02-19T00:31:48.744Z,0
2017-02-19T00:32:59.556Z,0
2017-02-19T00:34:10.354Z,0
2017-02-19T00:35:20.745Z,0
2017-02-19T00:36:31.186Z,0
2017-02-19T00:37:42.003Z,0
2017-02-19T00:38:52.021Z,0
2017-02-19T00:40:02.806Z,0
2017-02-19T00:41:12.837Z,0
2017-02-19T00:42:22.828Z,0
2017-02-19T00:43:33.994Z,0
2017-02-19T00:44:44.787Z,0
2017-02-19T00:45:54.779Z,0
2017-02-19T00:47:05.198Z,0
2017-02-19T00:48:15.986Z,0
2017-02-19T00:49:26.743Z,0
2017-02-19T00:50:37.526Z,0
2017-02-19T00:51:47.973Z,0
2017-02-19T00:52:58.730Z,0
2017-02-19T00:54:09.135Z,0
2017-02-19T00:55:19.543Z,0
2017-02-19T00:56:30.307Z,0
2017-02-19T00:57:41.120Z,0
2017-02-19T00:58:51.898Z,0
2017-02-19T01:00:02.322Z,0
2017-02-19T01:01:13.380Z,0
2017-02-19T01:02:23.352Z,0
2017-02-19T01:03:33.340Z,0
2017-02-19T01:04:43.727Z,0
2017-02-19T01:05:54.518Z,0
2017-02-19T01:07:05.300Z,0
2017-02-19T01:08:15.692Z,0
2017-02-19T01:09:25.339Z,0
2017-02-19T01:10:35.721Z,0
2017-02-19T01:11:46.146Z,0
2017-02-19T01:12:56.932Z,0
2017-02-19T01:14:07.696Z,0
2017-02-19T01:15:18.105Z,0
2017-02-19T01:16:28.095Z,0
2017-02-19T01:17:38.100Z,0
2017-02-19T01:18:48.873Z,0
2017-02-19T01:19:59.662Z,0
2017-02-19T01:21:10.045Z,0
2017-02-19T01:22:20.417Z,0
2017-02-19T01:23:31.197Z,0
2017-02-19T01:24:41.966Z,0
2017-02-19T01:25:52.366Z,0
2017-02-19T01:27:02.772Z,0
2017-02-19T01:28:13.185Z,0
2017-02-19T01:29:23.966Z,0
2017-02-19T01:30:33.945Z,0
2017-02-19T01:31:43.925Z,0
2017-02-19T01:32:54.767Z,0
2017-02-19T01:34:05.161Z,0
2017-02-19T01:35:15.924Z,0
2017-02-19T01:36:26.314Z,0
2017-02-19T01:37:37.113Z,0
2017-02-19T01:38:47.082Z,0
2017-02-19T01:39:57.482Z,0
2017-02-19T01:41:07.853Z,0
2017-02-19T01:42:18.257Z,0
2017-02-19T01:43:28.258Z,0
2017-02-19T01:44:39.035Z,0
2017-02-19T01:45:49.827Z,0
2017-02-19T01:47:00.611Z,0
2017-02-19T01:48:11.001Z,0
2017-02-19T01:49:21.387Z,0
2017-02-19T01:50:31.778Z,0
2017-02-19T01:51:42.146Z,0
2017-02-19T01:52:52.125Z,0
2017-02-19T01:54:02.933Z,0
2017-02-19T01:55:13.745Z,0
2017-02-19T01:56:24.119Z,0
2017-02-19T01:57:34.900Z,0
2017-02-19T01:58:45.300Z,0
2017-02-19T01:59:56.092Z,0
2017-02-19T02:01:06.479Z,0
2017-02-19T02:02:16.078Z,0
2017-02-19T02:03:26.093Z,0
2017-02-19T02:04:36.484Z,0
2017-02-19T02:05:46.862Z,0
2017-02-19T02:06:56.852Z,0
2017-02-19T02:08:07.650Z,0
2017-02-19T02:09:18.032Z,0
2017-02-19T02:10:28.412Z,0
2017-02-19T02:11:38.780Z,0
2017-02-19T02:12:49.178Z,0
2017-02-19T02:13:59.186Z,0
2017-02-19T02:15:09.593Z,0
2017-02-19T02:16:19.977Z,0
2017-02-19T02:17:30.779Z,0
2017-02-19T02:18:41.201Z,0
2017-02-19T02:19:51.972Z,0
2017-02-19T02:21:02.733Z,0
2017-02-19T02:22:13.129Z,0
2017-02-19T02:23:23.925Z,0
2017-02-19T02:24:34.719Z,0
2017-02-19T02:25:45.119Z,0
2017-02-19T02:26:56.165Z,0
2017-02-19T02:28:06.957Z,0
2017-02-19T02:29:17.336Z,0
2017-02-19T02:30:27.758Z,0
2017-02-19T02:31:38.550Z,0
2017-02-19T02:32:49.339Z,0
2017-02-19T02:34:00.118Z,0
2017-02-19T02:35:10.170Z,0
2017-02-19T02:36:20.555Z,0
2017-02-19T02:37:30.941Z,0
2017-02-19T02:38:40.953Z,0
2017-02-19T02:39:51.764Z,0
2017-02-19T02:41:02.543Z,0
2017-02-19T02:42:12.546Z,0
2017-02-19T02:43:22.930Z,0
2017-02-19T02:44:33.322Z,0
2017-02-19T02:45:44.118Z,0
2017-02-19T02:46:54.951Z,0
2017-02-19T02:48:04.556Z,0
2017-02-19T02:49:15.353Z,0
2017-02-19T02:50:25.723Z,0
2017-02-19T02:51:36.483Z,0
2017-02-19T02:52:47.263Z,0
2017-02-19T02:53:57.233Z,0
2017-02-19T02:55:08.015Z,0
2017-02-19T02:56:18.808Z,0
2017-02-19T02:57:28.797Z,0
2017-02-19T02:58:39.173Z,0
2017-02-19T02:59:49.165Z,0
2017-02-19T03:00:59.552Z,0
2017-02-19T03:33:21.483Z,0
2017-02-19T03:34:32.282Z,0
2017-02-19T03:35:42.653Z,0
2017-02-19T03:36:53.025Z,0
2017-02-19T03:38:03.791Z,0
2017-02-19T03:39:14.172Z,0
2017-02-19T03:40:24.999Z,0
2017-02-19T03:41:35.793Z,0
2017-02-19T03:42:45.828Z,0
2017-02-19T03:43:56.627Z,0
2017-02-19T03:45:07.424Z,0
2017-02-19T03:46:17.407Z,0
2017-02-19T03:47:27.389Z,0
2017-02-19T03:48:38.148Z,0
2017-02-19T03:49:48.189Z,0
2017-02-19T03:50:58.585Z,0
2017-02-19T03:52:08.952Z,0
2017-02-19T03:53:18.933Z,0
2017-02-19T03:54:28.928Z,0
2017-02-19T03:55:39.745Z,0
2017-02-19T03:56:50.550Z,0
2017-02-19T03:58:00.958Z,0
2017-02-19T03:59:11.728Z,0
2017-02-19T04:00:22.526Z,0
2017-02-19T04:01:33.320Z,0
2017-02-19T04:02:43.725Z,0
2017-02-19T04:03:54.544Z,0
2017-02-19T04:05:05.327Z,0
2017-02-19T04:06:15.719Z,0
2017-02-19T04:07:25.742Z,0
2017-02-19T04:08:36.125Z,0
2017-02-19T04:09:46.520Z,0
2017-02-19T04:10:57.303Z,0
2017-02-19T04:12:08.077Z,0
2017-02-19T04:13:18.084Z,0
2017-02-19T04:14:28.879Z,0
2017-02-19T04:15:39.663Z,0
2017-02-19T04:16:50.042Z,0
2017-02-19T04:18:00.810Z,0
2017-02-19T04:19:11.597Z,0
2017-02-19T04:20:22.372Z,0
2017-02-19T04:21:33.182Z,0
2017-02-19T04:22:43.575Z,0
2017-02-19T04:23:54.341Z,0
2017-02-19T04:25:05.112Z,0
2017-02-19T04:26:15.893Z,0
2017-02-19T04:27:25.884Z,0
2017-02-19T04:28:36.667Z,0
2017-02-19T04:29:47.454Z,0
2017-02-19T04:30:57.857Z,0
2017-02-19T04:32:08.645Z,0
2017-02-19T04:33:19.443Z,0
2017-02-19T04:34:30.275Z,0
2017-02-19T04:35:41.085Z,0
2017-02-19T04:36:51.869Z,0
2017-02-19T04:38:02.257Z,0
2017-02-19T04:39:12.234Z,0
2017-02-19T04:40:23.022Z,0
2017-02-19T04:41:33.790Z,0
2017-02-19T04:42:44.163Z,0
2017-02-19T04:43:54.544Z,0
2017-02-19T04:45:04.936Z,0
2017-02-19T04:46:15.729Z,0
2017-02-19T04:47:26.146Z,0
2017-02-19T04:48:36.924Z,0
2017-02-19T04:49:47.682Z,0
2017-02-19T04:50:58.049Z,0
2017-02-19T04:52:08.812Z,0
2017-02-19T04:53:19.622Z,0
2017-02-19T04:54:30.404Z,0
2017-02-19T04:55:41.196Z,0
2017-02-19T04:56:51.970Z,0
2017-02-19T04:58:02.752Z,0
2017-02-19T04:59:13.517Z,0
2017-02-19T05:00:23.908Z,0
2017-02-19T05:01:34.682Z,0
2017-02-19T05:02:45.687Z,0
2017-02-19T05:03:56.487Z,0
2017-02-19T05:05:07.319Z,0
2017-02-19T05:06:18.107Z,0
2017-02-19T05:07:28.502Z,0
2017-02-19T05:08:39.286Z,0
2017-02-19T05:09:50.039Z,0
2017-02-19T05:11:00.420Z,0
2017-02-19T05:12:10.791Z,0
2017-02-19T05:13:21.558Z,0
2017-02-19T05:14:31.940Z,0
2017-02-19T05:15:42.709Z,0
2017-02-19T05:16:53.484Z,0
2017-02-19T05:18:04.250Z,0
2017-02-19T05:19:14.676Z,0
2017-02-19T05:20:24.280Z,0
2017-02-19T05:21:35.074Z,0
2017-02-19T05:22:45.861Z,0
2017-02-19T05:23:56.267Z,0
2017-02-19T05:25:07.040Z,0
2017-02-19T05:26:17.808Z,0
2017-02-19T05:27:28.580Z,0
2017-02-19T05:28:39.369Z,0
2017-02-19T05:29:50.137Z,0
2017-02-19T05:31:00.986Z,0
2017-02-19T05:32:11.365Z,0
2017-02-19T05:33:22.138Z,0
2017-02-19T05:34:32.928Z,0
2017-02-19T05:35:43.710Z,0
2017-02-19T05:36:54.081Z,0
2017-02-19T05:38:04.059Z,0
2017-02-19T05:39:14.441Z,0
2017-02-19T05:40:25.239Z,0
2017-02-19T05:41:36.019Z,0
2017-02-19T05:42:46.401Z,0
2017-02-19T05:43:57.192Z,0
2017-02-19T05:45:07.579Z,0
2017-02-19T05:46:18.352Z,0
2017-02-19T05:47:29.124Z,0
2017-02-19T05:48:39.905Z,0
2017-02-19T05:49:50.674Z,0
2017-02-19T05:51:01.093Z,0
2017-02-19T05:52:11.853Z,0
2017-02-19T05:53:22.657Z,5
2017-02-19T05:54:33.451Z,5
2017-02-19T05:55:43.454Z,5
2017-02-19T05:56:54.222Z,5
2017-02-19T05:58:03.850Z,5
2017-02-19T05:59:14.624Z,5
2017-02-19T06:00:25.410Z,5
2017-02-19T06:01:36.190Z,5
2017-02-19T06:02:46.575Z,5
2017-02-19T06:03:57.369Z,5
2017-02-19T06:05:07.357Z,10
2017-02-19T06:06:17.716Z,10
2017-02-19T06:07:28.767Z,10
2017-02-19T06:08:39.145Z,10
2017-02-19T06:09:49.916Z,10
2017-02-19T06:11:00.287Z,15
2017-02-19T06:12:10.644Z,15
2017-02-19T06:13:21.406Z,15
2017-02-19T06:14:32.202Z,15
2017-02-19T06:15:42.574Z,15
2017-02-19T06:16:52.937Z,15
2017-02-19T06:18:03.304Z,20
2017-02-19T06:19:13.691Z,20
2017-02-19T06:20:24.078Z,20
2017-02-19T06:21:34.859Z,20
2017-02-19T06:22:45.625Z,20
2017-02-19T06:23:56.003Z,20
2017-02-19T06:25:06.789Z,20
2017-02-19T06:26:17.555Z,20
2017-02-19T06:27:27.961Z,25
2017-02-19T06:28:38.738Z,25
2017-02-19T06:29:48.751Z,25
2017-02-19T06:30:59.591Z,25
2017-02-19T06:32:09.560Z,30
2017-02-19T06:33:19.946Z,30
2017-02-19T06:34:30.347Z,30
2017-02-19T06:35:41.143Z,30
2017-02-19T06:36:51.916Z,30
2017-02-19T06:38:02.713Z,30
2017-02-19T06:39:13.113Z,35
2017-02-19T06:40:23.115Z,35
2017-02-19T06:41:33.922Z,35
2017-02-19T06:42:44.314Z,35
2017-02-19T06:43:54.340Z,40
2017-02-19T06:45:05.126Z,40
2017-02-19T06:46:15.915Z,40
2017-02-19T06:47:26.723Z,40
2017-02-19T06:48:37.494Z,40
2017-02-19T06:49:48.315Z,45
2017-02-19T06:50:59.088Z,45
2017-02-19T06:52:09.470Z,45
2017-02-19T06:53:20.258Z,45
2017-02-19T06:54:31.059Z,45
2017-02-19T06:55:40.663Z,45
2017-02-19T06:56:51.455Z,45
2017-02-19T06:58:01.843Z,50
2017-02-19T06:59:12.625Z,50
2017-02-19T07:00:23.000Z,50
2017-02-19T07:01:33.781Z,55
2017-02-19T07:02:44.564Z,55
2017-02-19T07:03:55.354Z,55
2017-02-19T07:05:05.742Z,60
2017-02-19T07:06:16.167Z,60
2017-02-19T07:07:26.970Z,65
2017-02-19T07:08:37.743Z,65
2017-02-19T07:09:48.521Z,65
2017-02-19T07:10:59.321Z,65
2017-02-19T07:12:10.112Z,70
2017-02-19T07:13:20.485Z,70
2017-02-19T07:14:30.896Z,75
2017-02-19T07:15:41.687Z,75
2017-02-19T07:16:52.055Z,75
2017-02-19T07:18:02.833Z,80
2017-02-19T07:19:13.616Z,80
2017-02-19T07:20:24.380Z,80
2017-02-19T07:21:35.186Z,80
2017-02-19T07:22:45.967Z,80
2017-02-19T07:23:56.348Z,80
2017-02-19T07:25:07.133Z,80
2017-02-19T07:26:17.904Z,80
2017-02-19T07:27:28.279Z,85
2017-02-19T07:28:38.653Z,95
2017-02-19T07:29:48.243Z,95
2017-02-19T07:30:58.620Z,95
2017-02-19T07:32:09.657Z,95
2017-02-19T07:33:20.427Z,95
2017-02-19T07:34:30.845Z,100
2017-02-19T07:35:41.642Z,105
2017-02-19T07:36:52.428Z,105
2017-02-19T07:38:03.211Z,105
2017-02-19T07:39:13.596Z,105
2017-02-19T07:40:24.372Z,110
2017-02-19T07:41:34.757Z,110
2017-02-19T07:42:45.539Z,110
2017-02-19T07:43:56.325Z,115
2017-02-19T07:45:05.932Z,115
2017-02-19T07:46:16.328Z,110
2017-02-19T07:47:26.317Z,115
2017-02-19T07:48:37.099Z,115
2017-02-19T07:49:47.873Z,115
2017-02-19T07:50:58.652Z,110
2017-02-19T07:52:08.631Z,115
2017-02-19T07:53:19.403Z,115
2017-02-19T07:54:30.211Z,120
2017-02-19T07:55:40.653Z,120
2017-02-19T07:56:51.047Z,120
2017-02-19T07:58:01.852Z,125
2017-02-19T07:59:12.628Z,125
2017-02-19T08:00:23.424Z,125
2017-02-19T08:01:34.215Z,125
2017-02-19T08:02:45.027Z,125
2017-02-19T08:03:55.802Z,125
2017-02-19T08:05:06.620Z,125
2017-02-19T08:06:17.380Z,125
2017-02-19T08:07:28.154Z,125
2017-02-19T08:08:38.951Z,125
2017-02-19T08:09:49.742Z,130
2017-02-19T08:11:00.154Z,130
2017-02-19T08:12:10.543Z,130
2017-02-19T08:13:21.343Z,130
2017-02-19T08:14:32.126Z,135
2017-02-19T08:15:42.929Z,140
2017-02-19T08:16:53.348Z,140
2017-02-19T08:18:03.731Z,130
2017-02-19T08:19:14.536Z,130
2017-02-19T08:20:25.329Z,135
2017-02-19T08:21:35.305Z,145
2017-02-19T08:22:46.121Z,145
2017-02-19T08:23:56.896Z,135
2017-02-19T08:25:07.293Z,140
2017-02-19T08:26:18.097Z,140
2017-02-19T08:27:28.853Z,145
2017-02-19T08:28:39.242Z,150
2017-02-19T08:29:50.026Z,150
2017-02-19T08:31:00.410Z,145
2017-02-19T08:32:10.789Z,145
2017-02-19T08:33:21.592Z,145
2017-02-19T08:34:32.383Z,145
2017-02-19T08:35:42.397Z,150
2017-02-19T08:36:52.785Z,150
2017-02-19T08:38:03.173Z,155
2017-02-19T08:39:13.955Z,160
2017-02-19T08:40:24.748Z,155
2017-02-19T08:41:35.523Z,155
2017-02-19T08:42:46.310Z,155
2017-02-19T08:43:57.092Z,160
2017-02-19T08:45:07.868Z,165
2017-02-19T08:46:17.841Z,170
2017-02-19T08:47:28.232Z,170
2017-02-19T08:48:39.015Z,170
2017-02-19T08:49:49.840Z,175
2017-02-19T08:51:00.258Z,180
2017-02-19T08:52:10.635Z,170
2017-02-19T08:53:21.035Z,175
2017-02-19T08:54:31.826Z,185
2017-02-19T08:55:42.225Z,190
2017-02-19T08:56:52.635Z,185
2017-02-19T08:58:02.653Z,185
2017-02-19T08:59:13.084Z,190
2017-02-19T09:00:23.873Z,195
2017-02-19T09:01:34.288Z,200
2017-02-19T09:02:45.066Z,195
2017-02-19T09:03:55.856Z,200
2017-02-19T09:05:06.639Z,205
2017-02-19T09:06:17.048Z,205
2017-02-19T09:07:27.803Z,205
2017-02-19T09:08:38.608Z,205
2017-02-19T09:09:49.006Z,205
2017-02-19T09:10:59.421Z,205
2017-02-19T09:12:10.205Z,210
2017-02-19T09:13:20.979Z,210
2017-02-19T09:14:31.777Z,210
2017-02-19T09:15:42.175Z,210
2017-02-19T09:16:52.986Z,215
2017-02-19T09:18:03.777Z,215
2017-02-19T09:19:14.623Z,215
2017-02-19T09:20:25.407Z,220
2017-02-19T09:21:35.790Z,225
2017-02-19T09:22:46.214Z,230
2017-02-19T09:23:57.010Z,235
2017-02-19T09:25:07.789Z,235
2017-02-19T09:26:18.585Z,240
2017-02-19T09:27:29.406Z,235
2017-02-19T09:28:39.785Z,235
2017-02-19T09:29:50.580Z,235
2017-02-19T09:31:00.965Z,240
2017-02-19T09:32:11.763Z,240
2017-02-19T09:33:22.180Z,245
2017-02-19T09:34:32.952Z,250
2017-02-19T09:35:43.376Z,245
2017-02-19T09:36:53.811Z,250
2017-02-19T09:38:04.213Z,245
2017-02-19T09:39:15.008Z,245
2017-02-19T09:40:25.416Z,255
2017-02-19T09:41:36.203Z,250
2017-02-19T09:42:46.993Z,250
2017-02-19T09:43:57.768Z,250
2017-02-19T09:45:08.173Z,255
2017-02-19T09:46:18.988Z,255
2017-02-19T09:47:29.376Z,255
2017-02-19T09:48:40.174Z,255
2017-02-19T09:49:50.149Z,260
2017-02-19T09:51:00.558Z,265
2017-02-19T09:52:11.371Z,270
2017-02-19T09:53:22.170Z,275
2017-02-19T09:54:32.966Z,255
2017-02-19T09:55:43.001Z,270
2017-02-19T09:56:53.809Z,260
2017-02-19T09:58:04.597Z,260
2017-02-19T09:59:15.373Z,230
2017-02-19T10:00:25.768Z,205
2017-02-19T10:01:36.152Z,200
2017-02-19T10:02:46.939Z,200
2017-02-19T10:03:57.729Z,215
2017-02-19T10:05:08.558Z,215
2017-02-19T10:06:19.325Z,215
2017-02-19T10:07:30.115Z,210
2017-02-19T10:08:40.892Z,205
2017-02-19T10:09:51.690Z,205
2017-02-19T10:11:02.483Z,210
2017-02-19T10:12:12.508Z,220
2017-02-19T10:13:23.317Z,230
2017-02-19T10:14:33.729Z,235
2017-02-19T10:15:44.126Z,285
2017-02-19T10:16:54.904Z,240
2017-02-19T10:18:05.301Z,285
2017-02-19T10:19:16.079Z,255
2017-02-19T10:20:26.467Z,250
2017-02-19T10:21:37.265Z,240
2017-02-19T10:22:48.054Z,275
2017-02-19T10:23:58.884Z,280
2017-02-19T10:25:09.685Z,280
2017-02-19T10:26:20.476Z,230
2017-02-19T10:27:30.491Z,260
2017-02-19T10:28:41.289Z,280
2017-02-19T10:29:52.131Z,280
2017-02-19T10:31:02.901Z,275
2017-02-19T10:32:13.301Z,235
2017-02-19T10:33:24.105Z,285
2017-02-19T10:34:34.916Z,290
2017-02-19T10:35:45.697Z,280
2017-02-19T10:36:56.480Z,270
2017-02-19T10:38:06.869Z,260
2017-02-19T10:39:17.717Z,285
2017-02-19T10:40:28.547Z,285
2017-02-19T10:41:39.341Z,280
2017-02-19T10:42:50.127Z,285
2017-02-19T10:44:00.523Z,285
2017-02-19T10:45:11.335Z,280
2017-02-19T10:46:22.128Z,275
2017-02-19T10:47:32.932Z,260
2017-02-19T10:48:43.332Z,240
2017-02-19T10:49:53.343Z,235
2017-02-19T10:51:04.154Z,275
2017-02-19T10:52:14.953Z,280
2017-02-19T10:53:25.757Z,245
2017-02-19T10:54:39.008Z,255
2017-02-19T10:55:49.565Z,260
2017-02-19T10:57:00.360Z,235
2017-02-19T10:58:11.452Z,245
2017-02-19T10:59:22.263Z,235
2017-02-19T11:00:33.049Z,210
2017-02-19T11:01:43.844Z,205
2017-02-19T11:02:54.228Z,200
2017-02-19T11:04:05.009Z,200
2017-02-19T11:05:15.391Z,210
2017-02-19T11:06:26.197Z,205
2017-02-19T11:07:37.015Z,200
2017-02-19T11:08:47.813Z,200
2017-02-19T11:09:58.637Z,200
2017-02-19T11:11:09.065Z,200
2017-02-19T11:12:19.464Z,195
2017-02-19T11:13:30.239Z,190
2017-02-19T11:14:40.639Z,185
2017-02-19T11:15:50.633Z,185
2017-02-19T11:17:01.403Z,185
2017-02-19T11:18:11.811Z,185
2017-02-19T11:19:22.592Z,180
2017-02-19T11:20:33.059Z,180
2017-02-19T11:21:43.850Z,175
2017-02-19T11:22:54.820Z,170
2017-02-19T11:24:05.625Z,165
2017-02-19T11:25:16.431Z,165
2017-02-19T11:26:27.270Z,160
2017-02-19T11:27:38.103Z,155
2017-02-19T11:28:48.921Z,150
2017-02-19T11:29:59.715Z,145
2017-02-19T11:31:10.510Z,135
2017-02-19T11:32:20.905Z,135
2017-02-19T11:33:31.303Z,130
2017-02-19T11:34:41.708Z,125
2017-02-19T11:35:52.111Z,125
2017-02-19T11:37:02.953Z,120
2017-02-19T11:38:13.346Z,120
2017-02-19T11:39:24.150Z,120
2017-02-19T11:40:34.539Z,115
2017-02-19T11:41:45.328Z,120
2017-02-19T11:42:56.103Z,120
2017-02-19T11:44:06.502Z,125
2017-02-19T11:45:16.906Z,125
2017-02-19T11:46:27.750Z,135
2017-02-19T11:47:38.533Z,140
2017-02-19T11:48:49.368Z,145
2017-02-19T11:50:00.165Z,155
2017-02-19T11:51:10.972Z,165
2017-02-19T11:52:21.394Z,160
2017-02-19T11:53:32.264Z,165
2017-02-19T11:54:43.053Z,165
2017-02-19T11:55:53.465Z,165
2017-02-19T11:57:04.271Z,160
2017-02-19T11:58:15.044Z,155
2017-02-19T11:59:25.853Z,150
2017-02-19T12:00:36.646Z,140
2017-02-19T12:01:47.032Z,140
2017-02-19T12:02:57.831Z,140
2017-02-19T12:04:08.650Z,140
2017-02-19T12:05:19.461Z,135
2017-02-19T12:06:29.873Z,135
2017-02-19T12:07:40.691Z,130
2017-02-19T12:08:51.574Z,130
2017-02-19T12:10:02.405Z,125
2017-02-19T12:11:13.287Z,125
2017-02-19T12:12:24.168Z,125
2017-02-19T12:13:35.016Z,125
2017-02-19T12:14:45.891Z,130
2017-02-19T12:15:56.319Z,130
2017-02-19T12:17:06.728Z,125
2017-02-19T12:18:17.553Z,125
2017-02-19T12:19:27.988Z,120
2017-02-19T12:20:38.838Z,115
2017-02-19T12:21:49.680Z,115
2017-02-19T12:23:00.097Z,110
2017-02-19T12:24:10.549Z,105
2017-02-19T12:25:21.323Z,100
2017-02-19T12:26:31.742Z,95
2017-02-19T12:27:42.738Z,90
2017-02-19T12:28:53.580Z,90
2017-02-19T12:30:04.379Z,90
2017-02-19T12:31:15.267Z,95
2017-02-19T12:32:25.658Z,100
2017-02-19T12:33:36.488Z,105
2017-02-19T12:34:47.274Z,110
2017-02-19T12:35:58.158Z,110
2017-02-19T12:37:08.546Z,110
2017-02-19T12:38:19.332Z,110
2017-02-19T12:39:30.133Z,110
2017-02-19T12:40:40.543Z,105
2017-02-19T12:41:51.322Z,105
2017-02-19T12:43:02.099Z,100
2017-02-19T12:44:12.904Z,100
2017-02-19T12:45:23.768Z,100
2017-02-19T12:46:34.192Z,100
2017-02-19T12:47:44.589Z,105
2017-02-19T12:48:55.399Z,105
2017-02-19T12:50:05.392Z,105
2017-02-19T12:51:16.183Z,110
2017-02-19T12:52:27.032Z,115
2017-02-19T12:53:37.506Z,115
2017-02-19T12:54:48.315Z,120
2017-02-19T12:55:59.123Z,125
2017-02-19T12:57:09.931Z,130
2017-02-19T12:58:20.721Z,130
2017-02-19T12:59:31.531Z,125
2017-02-19T13:00:41.918Z,155
2017-02-19T13:01:52.718Z,135
2017-02-19T13:03:03.105Z,145
2017-02-19T13:04:13.935Z,150
2017-02-19T13:05:24.332Z,155
2017-02-19T13:06:34.350Z,150
2017-02-19T13:07:45.168Z,150
2017-02-19T13:08:55.957Z,145
2017-02-19T13:10:06.789Z,145
2017-02-19T13:11:17.560Z,145
2017-02-19T13:12:27.561Z,140
2017-02-19T13:13:38.364Z,140
2017-02-19T13:14:49.127Z,135
2017-02-19T13:15:59.948Z,130
2017-02-19T13:17:10.741Z,125
2017-02-19T13:18:21.516Z,125
2017-02-19T13:19:32.283Z,120
2017-02-19T13:20:42.299Z,115
2017-02-19T13:21:53.098Z,115
2017-02-19T13:23:03.500Z,115
2017-02-19T13:24:13.901Z,115
2017-02-19T13:25:24.286Z,115
2017-02-19T13:26:34.700Z,110
2017-02-19T13:27:45.519Z,105
2017-02-19T13:28:55.929Z,105
2017-02-19T13:30:06.804Z,100
2017-02-19T13:31:16.880Z,95
2017-02-19T13:32:27.756Z,90
2017-02-19T13:33:38.636Z,85
2017-02-19T13:34:49.499Z,85
2017-02-19T13:36:00.364Z,90
2017-02-19T13:37:11.267Z,85
2017-02-19T13:38:22.122Z,85
2017-02-19T13:39:33.021Z,85
2017-02-19T13:40:43.869Z,85
2017-02-19T13:41:54.742Z,85
2017-02-19T13:43:05.622Z,85
2017-02-19T13:44:16.477Z,90
2017-02-19T13:45:27.379Z,90
2017-02-19T13:46:37.791Z,90
2017-02-19T13:47:48.662Z,90
2017-02-19T13:48:59.598Z,90
2017-02-19T13:50:10.481Z,90
2017-02-19T13:51:21.422Z,85
2017-02-19T13:52:31.909Z,85
2017-02-19T13:53:42.782Z,85
2017-02-19T13:54:53.708Z,85
2017-02-19T13:56:04.531Z,85
2017-02-19T13:57:14.982Z,90
2017-02-19T13:58:25.834Z,95
2017-02-19T13:59:36.758Z,100
2017-02-19T14:00:47.159Z,105
2017-02-19T14:01:57.180Z,110
2017-02-19T14:03:08.001Z,110
2017-02-19T14:04:18.814Z,105
2017-02-19T14:05:29.617Z,105
2017-02-19T14:06:40.417Z,105
2017-02-19T14:07:51.195Z,100
2017-02-19T14:09:02.001Z,100
2017-02-19T14:10:12.656Z,95
2017-02-19T14:11:23.483Z,95
2017-02-19T14:12:34.286Z,95
2017-02-19T14:13:44.694Z,95
2017-02-19T14:14:55.485Z,95
2017-02-19T14:16:06.283Z,95
2017-02-19T14:17:17.632Z,95
2017-02-19T14:18:28.532Z,90
2017-02-19T14:19:39.559Z,90
2017-02-19T14:20:50.537Z,85
2017-02-19T14:22:01.369Z,85
2017-02-19T14:23:12.208Z,80
2017-02-19T14:24:23.082Z,75
2017-02-19T14:25:33.492Z,70
2017-02-19T14:26:44.822Z,70
2017-02-19T14:27:55.690Z,65
2017-02-19T14:29:06.340Z,65
2017-02-19T14:30:17.196Z,60
2017-02-19T14:31:28.035Z,55
2017-02-19T14:32:38.582Z,55
2017-02-19T14:33:49.459Z,50
2017-02-19T14:35:00.373Z,45
2017-02-19T14:36:11.293Z,45
2017-02-19T14:37:22.422Z,45
2017-02-19T14:38:33.808Z,50
2017-02-19T14:39:44.649Z,60
2017-02-19T14:40:55.759Z,65
2017-02-19T14:42:07.020Z,70
2017-02-19T14:43:17.488Z,70
2017-02-19T14:44:28.686Z,75
2017-02-19T14:45:39.549Z,75
2017-02-19T14:46:50.840Z,80
2017-02-19T14:48:01.748Z,85
2017-02-19T14:49:13.128Z,85
2017-02-19T14:50:24.517Z,90
2017-02-19T14:51:35.224Z,100
2017-02-19T14:52:46.523Z,85
2017-02-19T14:53:58.408Z,100
2017-02-19T14:55:09.292Z,85
2017-02-19T14:56:34.411Z,85
2017-02-19T14:57:47.111Z,105
2017-02-19T14:58:58.209Z,100
2017-02-19T15:00:09.670Z,95
2017-02-19T15:01:21.948Z,75
2017-02-19T15:02:32.739Z,65
2017-02-19T15:03:44.155Z,65
2017-02-19T15:04:54.605Z,65
2017-02-19T15:06:05.429Z,60
2017-02-19T15:07:18.526Z,60
2017-02-19T15:08:29.400Z,60
2017-02-19T15:09:39.851Z,60
2017-02-19T15:10:50.883Z,70
2017-02-19T15:12:02.189Z,75
2017-02-19T15:13:13.638Z,60
2017-02-19T15:14:24.464Z,60
2017-02-19T15:15:35.533Z,60
2017-02-19T15:16:46.731Z,55
2017-02-19T15:17:57.995Z,55
2017-02-19T15:19:09.596Z,55
2017-02-19T15:20:35.339Z,50
2017-02-19T15:21:45.740Z,55
2017-02-19T15:22:56.541Z,50
2017-02-19T15:24:07.370Z,50
2017-02-19T15:25:18.188Z,50
2017-02-19T15:26:28.583Z,50
2017-02-19T15:27:38.612Z,50
2017-02-19T15:28:49.423Z,50
2017-02-19T15:29:59.476Z,50
2017-02-19T15:31:09.926Z,45
2017-02-19T15:32:20.802Z,45
2017-02-19T15:33:31.618Z,45
2017-02-19T15:34:42.676Z,45
2017-02-19T15:35:53.484Z,45
2017-02-19T15:37:04.295Z,40
2017-02-19T15:38:15.320Z,40
2017-02-19T15:39:26.225Z,40
2017-02-19T15:40:36.650Z,40
2017-02-19T15:41:47.434Z,35
2017-02-19T15:42:57.813Z,35
2017-02-19T15:44:08.247Z,35
2017-02-19T15:45:19.276Z,35
2017-02-19T15:46:30.788Z,35
2017-02-19T15:47:41.440Z,30
2017-02-19T15:48:52.043Z,30
2017-02-19T15:50:02.456Z,30
2017-02-19T15:51:13.629Z,30
2017-02-19T15:52:25.057Z,30
2017-02-19T15:53:36.129Z,30
2017-02-19T15:54:46.787Z,30
2017-02-19T15:55:58.082Z,30
2017-02-19T15:57:09.302Z,25
2017-02-19T15:58:20.976Z,25
2017-02-19T15:59:32.469Z,25
2017-02-19T16:00:43.693Z,25
2017-02-19T16:01:55.352Z,20
2017-02-19T16:03:07.030Z,20
2017-02-19T16:04:18.286Z,20
2017-02-19T16:05:28.940Z,15
2017-02-19T16:06:39.829Z,15
2017-02-19T16:07:51.120Z,15
2017-02-19T16:09:01.952Z,15
2017-02-19T16:10:13.043Z,10
2017-02-19T16:11:23.730Z,10
2017-02-19T16:12:35.015Z,10
2017-02-19T16:13:46.543Z,10
2017-02-19T16:14:57.810Z,10
2017-02-19T16:16:08.837Z,5
2017-02-19T16:17:19.919Z,5
2017-02-19T16:18:31.338Z,5
2017-02-19T16:19:42.872Z,5
2017-02-19T16:20:54.564Z,5
2017-02-19T16:22:06.733Z,5
2017-02-19T16:23:18.057Z,5
2017-02-19T16:24:30.374Z,0
2017-02-19T16:25:41.475Z,0
2017-02-19T16:26:52.768Z,0
2017-02-19T16:28:04.896Z,0
2017-02-19T16:29:15.976Z,0
2017-02-19T16:30:27.284Z,0
2017-02-19T16:31:38.741Z,0
2017-02-19T16:32:49.661Z,0
2017-02-19T16:34:00.133Z,0
2017-02-19T16:35:10.957Z,0
2017-02-19T16:36:21.777Z,0
2017-02-19T16:37:32.611Z,0
2017-02-19T16:38:43.439Z,0
2017-02-19T16:39:54.222Z,0
2017-02-19T16:41:05.009Z,0
2017-02-19T16:42:15.811Z,0
2017-02-19T16:43:26.661Z,0
2017-02-19T16:44:37.708Z,0
2017-02-19T16:45:48.539Z,0
2017-02-19T16:46:59.422Z,0
2017-02-19T16:48:09.843Z,0
2017-02-19T16:49:20.666Z,0
2017-02-19T16:50:30.696Z,0
2017-02-19T16:51:41.099Z,0
2017-02-19T16:52:51.511Z,0
2017-02-19T16:54:02.329Z,0
2017-02-19T16:55:13.154Z,0
2017-02-19T16:56:23.955Z,0
2017-02-19T16:57:34.734Z,0
2017-02-19T16:58:45.141Z,0
2017-02-19T16:59:55.940Z,0
2017-02-19T17:01:06.723Z,0
2017-02-19T17:02:17.531Z,0
2017-02-19T17:03:28.320Z,0
2017-02-19T17:04:39.151Z,0
2017-02-19T17:05:49.137Z,0
2017-02-19T17:06:59.942Z,0
2017-02-19T17:08:10.340Z,0
2017-02-19T17:09:20.814Z,0
2017-02-19T17:10:31.623Z,0
2017-02-19T17:11:42.010Z,0
2017-02-19T17:12:52.395Z,0
2017-02-19T17:14:03.214Z,0
2017-02-19T17:15:14.044Z,0
2017-02-19T17:16:24.468Z,0
2017-02-19T17:17:35.265Z,0
2017-02-19T17:18:46.070Z,0
2017-02-19T17:19:56.872Z,0